TAF Text Data
IDs:
Format:
Raw Decoded Include METAR

Data at: 0815 UTC 27 Feb 2020

KFTY 270532Z 2706/2806 30010G18KT P6SM SCT025 BKN040
  FM271500 31011G18KT P6SM BKN050
  FM271800 31012G20KT P6SM SCT050
  FM280100 28006KT P6SM SKC